createdAt,value
2022-09-20T00:00:45.222Z,13
2022-09-20T00:01:52.211Z,13
2022-09-20T00:02:59.328Z,13
2022-09-20T00:04:06.513Z,13
2022-09-20T00:05:13.031Z,13
2022-09-20T00:06:20.645Z,13
2022-09-20T00:07:27.163Z,13
2022-09-20T00:09:42.024Z,13
2022-09-20T00:10:48.040Z,13
2022-09-20T00:11:55.118Z,13
2022-09-20T00:13:02.240Z,13
2022-09-20T00:14:09.339Z,13
2022-09-20T00:15:16.407Z,13
2022-09-20T00:16:23.100Z,13
2022-09-20T00:17:30.256Z,13
2022-09-20T00:18:37.340Z,13
2022-09-20T00:19:44.327Z,13.1
2022-09-20T00:20:51.415Z,13
2022-09-20T00:21:57.967Z,13
2022-09-20T00:23:05.173Z,13
2022-09-20T00:24:12.235Z,13
2022-09-20T00:25:19.340Z,13
2022-09-20T00:26:26.459Z,13
2022-09-20T00:28:40.227Z,13
2022-09-20T00:29:47.381Z,13
2022-09-20T00:30:54.320Z,13
2022-09-20T00:32:01.540Z,13
2022-09-20T00:33:08.011Z,13
2022-09-20T00:34:15.255Z,13
2022-09-20T00:35:22.231Z,13
2022-09-20T00:36:29.341Z,13
2022-09-20T00:38:43.028Z,12.9
2022-09-20T00:39:50.190Z,12.9
2022-09-20T00:40:57.240Z,12.9
2022-09-20T00:42:04.306Z,12.9
2022-09-20T00:43:11.480Z,12.9
2022-09-20T00:44:17.995Z,12.9
2022-09-20T00:45:25.099Z,12.9
2022-09-20T00:46:32.761Z,12.9
2022-09-20T00:47:39.393Z,12.9
2022-09-20T00:48:46.490Z,12.9
2022-09-20T00:51:00.145Z,12.9
2022-09-20T00:52:07.252Z,13
2022-09-20T00:53:14.318Z,13
2022-09-20T00:54:21.471Z,13
2022-09-20T00:55:28.210Z,13
2022-09-20T00:56:35.151Z,13
2022-09-20T00:58:49.397Z,13
2022-09-20T00:59:56.501Z,13
2022-09-20T01:01:03.238Z,13
2022-09-20T01:02:10.234Z,13
2022-09-20T01:03:17.291Z,13
2022-09-20T01:04:24.360Z,13
2022-09-20T01:06:38.098Z,13
2022-09-20T01:07:45.174Z,13
2022-09-20T01:08:52.293Z,13
2022-09-20T01:09:59.390Z,13
2022-09-20T01:11:06.011Z,13
2022-09-20T01:12:13.151Z,13
2022-09-20T01:13:20.176Z,13
2022-09-20T01:14:27.281Z,13
2022-09-20T01:15:34.375Z,13
2022-09-20T01:16:41.063Z,13
2022-09-20T01:17:48.126Z,13
2022-09-20T01:18:55.170Z,13
2022-09-20T01:20:02.330Z,13
2022-09-20T01:21:09.385Z,13
2022-09-20T01:22:16.056Z,13
2022-09-20T01:23:23.120Z,13
2022-09-20T01:24:30.209Z,13
2022-09-20T01:25:37.339Z,13
2022-09-20T01:26:46.911Z,13
2022-09-20T01:27:51.035Z,13
2022-09-20T01:28:58.146Z,13
2022-09-20T01:30:05.163Z,13
2022-09-20T01:32:19.417Z,13
2022-09-20T01:33:25.990Z,13
2022-09-20T01:34:33.688Z,13
2022-09-20T01:35:40.241Z,13.1
2022-09-20T01:36:47.299Z,13.1
2022-09-20T01:37:54.421Z,13.1
2022-09-20T01:39:01.524Z,13.1
2022-09-20T01:40:09.430Z,13.1
2022-09-20T01:41:15.178Z,13.1
2022-09-20T01:42:22.347Z,13
2022-09-20T01:43:29.440Z,13
2022-09-20T01:44:36.058Z,13
2022-09-20T01:45:43.138Z,13
2022-09-20T01:46:50.216Z,13.1
2022-09-20T01:47:57.327Z,13.1
2022-09-20T01:49:04.397Z,13.1
2022-09-20T01:50:12.082Z,13.1
2022-09-20T01:51:18.140Z,13.2
2022-09-20T01:52:25.198Z,13.2
2022-09-20T01:53:33.381Z,13.2
2022-09-20T01:54:39.591Z,13.2
2022-09-20T01:55:46.040Z,13.1
2022-09-20T01:56:53.129Z,13.2
2022-09-20T01:58:00.202Z,13.2
2022-09-20T01:59:23.119Z,13.2
2022-09-20T02:00:14.415Z,13.2
2022-09-20T02:01:21.048Z,13.1
2022-09-20T02:02:28.227Z,13.2
2022-09-20T02:03:35.240Z,13.1
2022-09-20T02:04:42.450Z,13.1
2022-09-20T02:05:49.450Z,13.1
2022-09-20T02:06:56.067Z,13.1
2022-09-20T02:08:03.670Z,13.1
2022-09-20T02:09:10.268Z,13.1
2022-09-20T02:10:17.449Z,13.1
2022-09-20T02:11:23.911Z,13.1
2022-09-20T02:13:38.186Z,13
2022-09-20T02:14:45.301Z,13
2022-09-20T02:15:52.343Z,13
2022-09-20T02:16:59.076Z,13
2022-09-20T02:18:06.079Z,13
2022-09-20T02:19:13.143Z,13
2022-09-20T02:20:20.317Z,13
2022-09-20T02:21:27.432Z,13
2022-09-20T02:22:33.941Z,13
2022-09-20T02:23:41.088Z,12.9
2022-09-20T02:24:48.194Z,12.9
2022-09-20T02:27:02.342Z,12.9
2022-09-20T02:28:08.989Z,12.9
2022-09-20T02:29:16.069Z,12.9
2022-09-20T02:30:23.140Z,12.9
2022-09-20T02:31:30.466Z,12.8
2022-09-20T02:32:37.409Z,12.8
2022-09-20T02:33:43.991Z,12.8
2022-09-20T02:37:05.297Z,12.7
2022-09-20T02:38:12.358Z,12.7
2022-09-20T02:39:18.986Z,12.7
2022-09-20T02:40:26.216Z,12.7
2022-09-20T02:41:33.183Z,12.7
2022-09-20T02:42:40.384Z,12.7
2022-09-20T02:43:47.415Z,12.7
2022-09-20T02:44:53.957Z,12.7
2022-09-20T02:46:01.126Z,12.7
2022-09-20T02:47:08.230Z,12.7
2022-09-20T02:48:15.266Z,12.7
2022-09-20T02:49:22.417Z,12.7
2022-09-20T02:50:29.030Z,12.7
2022-09-20T02:51:36.123Z,12.7
2022-09-20T02:52:43.210Z,12.7
2022-09-20T02:54:56.924Z,12.7
2022-09-20T02:56:03.990Z,12.7
2022-09-20T02:57:11.190Z,12.7
2022-09-20T02:58:18.261Z,12.7
2022-09-20T02:59:25.340Z,12.7
2022-09-20T03:00:31.900Z,12.7
2022-09-20T03:01:39.163Z,12.7
2022-09-20T03:02:46.655Z,12.7
2022-09-20T03:05:00.379Z,12.7
2022-09-20T03:06:06.918Z,12.7
2022-09-20T03:07:13.984Z,12.7
2022-09-20T03:08:21.261Z,12.7
2022-09-20T03:09:28.241Z,12.7
2022-09-20T03:10:35.358Z,12.7
2022-09-20T03:11:42.952Z,12.7
2022-09-20T03:12:49.061Z,12.7
2022-09-20T03:13:56.171Z,12.7
2022-09-20T03:15:03.230Z,12.7
2022-09-20T03:16:10.570Z,12.7
2022-09-20T03:17:17.474Z,12.7
2022-09-20T03:18:24.052Z,12.7
2022-09-20T03:19:31.187Z,12.7
2022-09-20T03:20:38.251Z,12.7
2022-09-20T03:21:45.540Z,12.7
2022-09-20T03:22:52.421Z,12.7
2022-09-20T03:23:59.061Z,12.7
2022-09-20T03:25:06.140Z,12.7
2022-09-20T03:26:13.240Z,12.7
2022-09-20T03:27:20.940Z,12.7
2022-09-20T03:28:26.961Z,12.7
2022-09-20T03:29:34.016Z,12.7
2022-09-20T03:30:45.221Z,12.7
2022-09-20T03:32:55.451Z,12.7
2022-09-20T03:34:02.051Z,12.7
2022-09-20T03:36:16.197Z,12.7
2022-09-20T03:37:25.156Z,12.7
2022-09-20T03:39:37.158Z,12.7
2022-09-20T03:40:46.541Z,12.7
2022-09-20T03:41:51.169Z,12.7
2022-09-20T03:42:58.311Z,12.7
2022-09-20T03:44:06.637Z,12.7
2022-09-20T03:45:24.386Z,12.7
2022-09-20T03:46:19.392Z,12.7
2022-09-20T03:47:26.143Z,12.7
2022-09-20T03:48:33.252Z,12.7
2022-09-20T03:49:40.388Z,12.7
2022-09-20T03:50:46.959Z,12.7
2022-09-20T03:51:54.041Z,12.7
2022-09-20T03:53:05.554Z,12.7
2022-09-20T03:55:15.358Z,12.7
2022-09-20T03:56:22.400Z,12.7
2022-09-20T03:57:37.320Z,12.7
2022-09-20T03:58:36.191Z,12.7
2022-09-20T03:59:43.265Z,12.7
2022-09-20T04:00:50.560Z,12.7
2022-09-20T04:01:57.101Z,12.7
2022-09-20T04:03:04.161Z,12.7
2022-09-20T04:04:11.202Z,12.7
2022-09-20T04:05:18.390Z,12.7
2022-09-20T04:06:25.935Z,12.7
2022-09-20T04:07:33.431Z,12.7
2022-09-20T04:08:40.384Z,12.7
2022-09-20T04:09:46.756Z,12.7
2022-09-20T04:10:53.278Z,12.7
2022-09-20T04:12:02.740Z,12.7
2022-09-20T04:13:14.790Z,12.7
2022-09-20T04:14:14.603Z,12.8
2022-09-20T04:15:21.220Z,12.8
2022-09-20T04:17:41.676Z,12.8
2022-09-20T04:18:43.643Z,12.8
2022-09-20T04:19:49.150Z,12.8
2022-09-20T04:20:56.834Z,12.8
2022-09-20T04:22:03.323Z,12.7
2022-09-20T04:23:11.002Z,12.8
2022-09-20T04:24:17.015Z,12.7
2022-09-20T04:25:24.191Z,12.7
2022-09-20T04:26:31.231Z,12.7
2022-09-20T04:27:38.365Z,12.7
2022-09-20T04:28:45.406Z,12.7
2022-09-20T04:29:52.038Z,12.7
2022-09-20T04:31:10.474Z,12.7
2022-09-20T04:32:06.319Z,12.7
2022-09-20T04:33:13.460Z,12.7
2022-09-20T04:34:19.951Z,12.7
2022-09-20T04:35:27.020Z,12.7
2022-09-20T04:36:34.121Z,12.8
2022-09-20T04:37:41.271Z,12.8
2022-09-20T04:38:48.390Z,12.8
2022-09-20T04:39:54.893Z,12.8
2022-09-20T04:41:02.093Z,12.8
2022-09-20T04:43:16.291Z,12.9
2022-09-20T04:44:23.459Z,12.9
2022-09-20T04:45:30.002Z,12.8
2022-09-20T04:46:37.243Z,12.9
2022-09-20T04:47:44.179Z,12.9
2022-09-20T04:48:51.318Z,12.9
2022-09-20T04:49:58.442Z,12.9
2022-09-20T04:51:04.932Z,12.9
2022-09-20T04:52:12.140Z,12.9
2022-09-20T04:53:19.181Z,12.9
2022-09-20T04:54:26.289Z,12.9
2022-09-20T04:55:33.352Z,12.9
2022-09-20T04:56:39.965Z,12.9
2022-09-20T04:58:54.180Z,12.9
2022-09-20T05:00:01.290Z,12.9
2022-09-20T05:01:09.013Z,12.9
2022-09-20T05:03:22.138Z,12.9
2022-09-20T05:04:29.175Z,12.9
2022-09-20T05:05:36.400Z,12.9
2022-09-20T05:06:43.370Z,13
2022-09-20T05:07:50.010Z,13
2022-09-20T05:08:59.052Z,13
2022-09-20T05:10:04.142Z,13
2022-09-20T05:11:11.335Z,13
2022-09-20T05:12:18.446Z,13.1
2022-09-20T05:13:24.951Z,13.1
2022-09-20T05:14:33.026Z,13.1
2022-09-20T05:15:40.260Z,13.1
2022-09-20T05:16:46.956Z,13.1
2022-09-20T05:17:52.843Z,13.1
2022-09-20T05:18:59.989Z,13.1
2022-09-20T05:20:07.213Z,13.1
2022-09-20T05:21:14.159Z,13.1
2022-09-20T05:23:27.891Z,13.1
2022-09-20T05:24:35.078Z,13.1
2022-09-20T05:25:42.199Z,13
2022-09-20T05:26:49.281Z,13
2022-09-20T05:27:56.341Z,13.1
2022-09-20T05:29:02.861Z,13
2022-09-20T05:31:17.107Z,13
2022-09-20T05:32:24.211Z,13.1
2022-09-20T05:33:31.370Z,13.1
2022-09-20T05:34:37.897Z,13.1
2022-09-20T05:35:45.002Z,13.1
2022-09-20T05:36:52.104Z,13.1
2022-09-20T05:37:59.200Z,13.1
2022-09-20T05:40:13.032Z,13.1
2022-09-20T05:41:20.056Z,13.1
2022-09-20T05:42:27.191Z,13.1
2022-09-20T05:43:34.191Z,13.1
2022-09-20T05:44:41.339Z,13
2022-09-20T05:46:55.021Z,13
2022-09-20T05:48:02.180Z,13
2022-09-20T05:49:09.224Z,13
2022-09-20T05:50:16.370Z,13
2022-09-20T05:51:22.926Z,13
2022-09-20T05:52:30.024Z,13
2022-09-20T05:53:37.161Z,13
2022-09-20T05:54:44.208Z,13
2022-09-20T05:55:51.383Z,13.1
2022-09-20T05:56:59.009Z,13.1
2022-09-20T05:59:12.920Z,13.1
2022-09-20T06:00:19.270Z,13.1
2022-09-20T06:01:26.418Z,13
2022-09-20T06:02:32.975Z,13
2022-09-20T06:03:40.092Z,13
2022-09-20T06:04:47.162Z,13
2022-09-20T06:05:54.222Z,13
2022-09-20T06:07:00.805Z,13
2022-09-20T06:08:07.969Z,13
2022-09-20T06:09:15.053Z,13
2022-09-20T06:10:22.170Z,13
2022-09-20T06:11:29.270Z,13
2022-09-20T06:12:35.887Z,13
2022-09-20T06:13:42.940Z,13
2022-09-20T06:14:50.087Z,13
2022-09-20T06:15:57.225Z,13
2022-09-20T06:17:04.242Z,13
2022-09-20T06:18:10.872Z,13
2022-09-20T06:19:18.011Z,13.1
2022-09-20T06:21:32.169Z,13.1
2022-09-20T06:22:39.242Z,13.1
2022-09-20T06:23:45.909Z,13.1
2022-09-20T06:24:53.014Z,13.1
2022-09-20T06:26:00.180Z,13.1
2022-09-20T06:27:07.212Z,13.1
2022-09-20T06:28:14.286Z,13.1
2022-09-20T06:29:20.891Z,13.1
2022-09-20T06:30:28.098Z,13.1
2022-09-20T06:31:36.466Z,13.2
2022-09-20T06:32:42.710Z,13.2
2022-09-20T06:33:49.299Z,13.2
2022-09-20T06:34:55.860Z,13.2
2022-09-20T06:36:02.988Z,13.2
2022-09-20T06:37:10.127Z,13.2
2022-09-20T06:38:17.764Z,13.2
2022-09-20T06:39:24.280Z,13.2
2022-09-20T06:40:30.923Z,13.2
2022-09-20T06:41:38.005Z,13.2
2022-09-20T06:42:45.108Z,13.2
2022-09-20T06:43:52.252Z,13.2
2022-09-20T06:44:59.343Z,13.2
2022-09-20T06:46:05.903Z,13.2
2022-09-20T06:47:12.974Z,13.2
2022-09-20T06:48:20.446Z,13.2
2022-09-20T06:51:40.921Z,13.2
2022-09-20T06:52:48.004Z,13.2
2022-09-20T06:53:55.260Z,13.2
2022-09-20T06:55:02.218Z,13.2
2022-09-20T06:56:09.453Z,13.2
2022-09-20T06:57:15.910Z,13.2
2022-09-20T06:58:23.040Z,13.2
2022-09-20T06:59:30.160Z,13.2
2022-09-20T07:00:37.787Z,13.2
2022-09-20T07:02:50.929Z,13.2
2022-09-20T07:03:58.058Z,13.2
2022-09-20T07:05:05.315Z,13.2
2022-09-20T07:06:12.280Z,13.2
2022-09-20T07:07:18.810Z,13.2
2022-09-20T07:08:27.006Z,13.2
2022-09-20T07:09:33.030Z,13.2
2022-09-20T07:10:40.165Z,13.2
2022-09-20T07:11:47.282Z,13.2
2022-09-20T07:12:54.050Z,13.2
2022-09-20T07:14:00.986Z,13.3
2022-09-20T07:15:08.110Z,13.2
2022-09-20T07:16:15.219Z,13.3
2022-09-20T07:17:22.250Z,13.3
2022-09-20T07:18:28.862Z,13.3
2022-09-20T07:19:37.055Z,13.2
2022-09-20T07:20:43.087Z,13.3
2022-09-20T07:21:50.217Z,13.3
2022-09-20T07:22:57.282Z,13.3
2022-09-20T07:24:03.852Z,13.3
2022-09-20T07:25:10.935Z,13.3
2022-09-20T07:26:18.072Z,13.4
2022-09-20T07:27:29.082Z,13.4
2022-09-20T07:29:38.905Z,13.4
2022-09-20T07:30:45.920Z,13.4
2022-09-20T07:31:53.223Z,13.5
2022-09-20T07:33:00.220Z,13.5
2022-09-20T07:34:07.265Z,13.5
2022-09-20T07:35:13.874Z,13.6
2022-09-20T07:36:20.928Z,13.6
2022-09-20T07:37:28.092Z,13.6
2022-09-20T07:38:35.135Z,13.7
2022-09-20T07:39:42.306Z,13.7
2022-09-20T07:40:48.858Z,13.7
2022-09-20T07:41:56.115Z,13.7
2022-09-20T07:44:10.263Z,13.8
2022-09-20T07:45:17.430Z,13.8
2022-09-20T07:46:23.861Z,13.8
2022-09-20T07:47:31.161Z,13.8
2022-09-20T07:48:38.115Z,13.8
2022-09-20T07:49:45.193Z,13.8
2022-09-20T07:50:52.292Z,13.9
2022-09-20T07:51:58.903Z,13.9
2022-09-20T07:54:14.337Z,13.9
2022-09-20T07:55:20.225Z,13.9
2022-09-20T07:57:33.873Z,13.9
2022-09-20T07:58:41.033Z,13.9
2022-09-20T07:59:48.176Z,13.9
2022-09-20T08:00:55.784Z,13.9
2022-09-20T08:02:02.373Z,13.9
2022-09-20T08:03:08.921Z,13.9
2022-09-20T08:04:16.023Z,13.9
2022-09-20T08:05:24.610Z,13.9
2022-09-20T08:06:30.221Z,13.9
2022-09-20T08:07:37.332Z,13.9
2022-09-20T08:08:43.921Z,13.9
2022-09-20T08:09:51.082Z,14
2022-09-20T08:10:58.201Z,14
2022-09-20T08:14:19.175Z,14
2022-09-20T08:15:26.002Z,14
2022-09-20T08:16:33.189Z,14
2022-09-20T08:17:40.232Z,14
2022-09-20T08:18:46.812Z,14
2022-09-20T08:19:53.879Z,14
2022-09-20T08:21:00.982Z,14
2022-09-20T08:22:08.161Z,14
2022-09-20T08:23:23.428Z,14
2022-09-20T08:24:21.808Z,14
2022-09-20T08:25:28.939Z,14
2022-09-20T08:26:36.052Z,14
2022-09-20T08:27:43.239Z,14
2022-09-20T08:28:50.278Z,14
2022-09-20T08:29:56.827Z,14
2022-09-20T08:31:04.986Z,14
2022-09-20T08:32:11.052Z,14
2022-09-20T08:33:18.171Z,14
2022-09-20T08:34:25.214Z,14
2022-09-20T08:35:31.804Z,14
2022-09-20T08:36:38.982Z,14
2022-09-20T08:37:46.062Z,14
2022-09-20T08:40:00.477Z,14
2022-09-20T08:41:06.873Z,14
2022-09-20T08:42:14.435Z,14.1
2022-09-20T08:43:22.225Z,14.1
2022-09-20T08:44:28.383Z,14.1
2022-09-20T08:45:35.517Z,14.1
2022-09-20T08:46:41.906Z,14.1
2022-09-20T08:47:48.995Z,14.1
2022-09-20T08:48:56.161Z,14.1
2022-09-20T08:50:09.011Z,14.1
2022-09-20T08:51:10.293Z,14.1
2022-09-20T08:52:16.890Z,14.1
2022-09-20T08:53:23.970Z,14.2
2022-09-20T08:54:32.242Z,14.2
2022-09-20T08:55:38.229Z,14.2
2022-09-20T08:56:47.008Z,14.2
2022-09-20T08:57:51.937Z,14.2
2022-09-20T08:58:59.493Z,14.2
2022-09-20T09:00:06.101Z,14.2
2022-09-20T09:01:13.348Z,14.2
2022-09-20T09:02:20.366Z,14.2
2022-09-20T09:03:26.902Z,14.2
2022-09-20T09:04:33.972Z,14.2
2022-09-20T09:05:41.116Z,14.2
2022-09-20T09:06:48.220Z,14.2
2022-09-20T09:07:54.740Z,14.2
2022-09-20T09:09:01.947Z,14.2
2022-09-20T09:10:09.022Z,14.3
2022-09-20T09:11:16.115Z,14.2
2022-09-20T09:12:23.162Z,14.2
2022-09-20T09:13:29.839Z,14.2
2022-09-20T09:14:36.923Z,14.2
2022-09-20T09:15:44.504Z,14.2
2022-09-20T09:16:51.162Z,14.2
2022-09-20T09:17:58.241Z,14.2
2022-09-20T09:19:04.816Z,14.2
2022-09-20T09:20:11.920Z,14.2
2022-09-20T09:21:19.065Z,14.2
2022-09-20T09:22:26.196Z,14.2
2022-09-20T09:23:33.740Z,14.3
2022-09-20T09:24:39.863Z,14.3
2022-09-20T09:25:46.921Z,14.3
2022-09-20T09:28:01.181Z,14.3
2022-09-20T09:29:08.218Z,14.3
2022-09-20T09:30:14.829Z,14.3
2022-09-20T09:31:22.000Z,14.3
2022-09-20T09:32:29.033Z,14.3
2022-09-20T09:33:36.188Z,14.3
2022-09-20T09:34:43.273Z,14.3
2022-09-20T09:35:49.800Z,14.3
2022-09-20T09:36:56.965Z,14.3
2022-09-20T09:38:04.011Z,14.3
2022-09-20T09:39:11.250Z,14.3
2022-09-20T09:40:18.474Z,14.3
2022-09-20T09:41:24.782Z,14.3
2022-09-20T09:42:31.942Z,14.3
2022-09-20T09:43:39.041Z,14.4
2022-09-20T09:44:46.219Z,14.4
2022-09-20T09:45:53.373Z,14.4
2022-09-20T09:46:59.828Z,14.4
2022-09-20T09:48:06.932Z,14.4
2022-09-20T09:49:14.195Z,14.4
2022-09-20T09:50:21.142Z,14.4
2022-09-20T09:51:28.291Z,14.4
2022-09-20T09:52:34.812Z,14.4
2022-09-20T09:53:41.963Z,14.4
2022-09-20T09:54:49.151Z,14.4
2022-09-20T09:55:56.203Z,14.4
2022-09-20T09:57:03.368Z,14.4
2022-09-20T09:58:09.845Z,14.5
2022-09-20T09:59:16.968Z,14.5
2022-09-20T10:00:24.166Z,14.5
2022-09-20T10:01:33.340Z,14.5
2022-09-20T10:02:37.811Z,14.4
2022-09-20T10:03:44.881Z,14.4
2022-09-20T10:04:52.446Z,14.4
2022-09-20T10:05:59.054Z,14.5
2022-09-20T10:07:06.198Z,14.5
2022-09-20T10:08:12.760Z,14.5
2022-09-20T10:09:19.876Z,14.5
2022-09-20T10:10:26.982Z,14.5
2022-09-20T10:11:34.062Z,14.6
2022-09-20T10:12:41.200Z,14.5
2022-09-20T10:13:47.770Z,14.5
2022-09-20T10:14:54.887Z,14.5
2022-09-20T10:16:02.009Z,14.6
2022-09-20T10:17:09.095Z,14.6
2022-09-20T10:18:16.285Z,14.5
2022-09-20T10:19:23.894Z,14.5
2022-09-20T10:20:29.916Z,14.5
2022-09-20T10:21:37.015Z,14.6
2022-09-20T10:22:55.793Z,14.6
2022-09-20T10:24:57.796Z,14.6
2022-09-20T10:26:04.926Z,14.6
2022-09-20T10:27:12.003Z,14.6
2022-09-20T10:28:19.084Z,14.6
2022-09-20T10:29:26.361Z,14.6
2022-09-20T10:30:32.797Z,14.6
2022-09-20T10:31:39.943Z,14.6
2022-09-20T10:32:46.983Z,14.6
2022-09-20T10:33:54.093Z,14.6
2022-09-20T10:35:01.186Z,14.6
2022-09-20T10:36:07.756Z,14.6
2022-09-20T10:37:14.868Z,14.6
2022-09-20T10:38:22.063Z,14.6
2022-09-20T10:39:29.179Z,14.6
2022-09-20T10:40:36.348Z,14.6
2022-09-20T10:41:42.757Z,14.6
2022-09-20T10:42:49.889Z,14.6
2022-09-20T10:44:01.447Z,14.7
2022-09-20T10:45:04.126Z,14.6
2022-09-20T10:46:31.395Z,14.7
2022-09-20T10:47:17.892Z,14.7
2022-09-20T10:48:24.870Z,14.7
2022-09-20T10:49:31.981Z,14.7
2022-09-20T10:50:39.706Z,14.7
2022-09-20T10:51:46.328Z,14.7
2022-09-20T10:52:53.126Z,14.7
2022-09-20T10:53:59.914Z,14.7
2022-09-20T10:55:07.087Z,14.7
2022-09-20T10:56:14.144Z,14.7
2022-09-20T10:57:21.283Z,14.7
2022-09-20T10:58:27.982Z,14.7
2022-09-20T10:59:34.941Z,14.8
2022-09-20T11:00:42.147Z,14.8
2022-09-20T11:01:49.160Z,14.9
2022-09-20T11:02:55.752Z,14.9
2022-09-20T11:05:10.068Z,14.9
2022-09-20T11:06:17.026Z,14.9
2022-09-20T11:07:24.103Z,14.9
2022-09-20T11:08:30.781Z,14.9
2022-09-20T11:09:37.919Z,14.9
2022-09-20T11:10:45.003Z,14.9
2022-09-20T11:11:52.031Z,15
2022-09-20T11:12:59.161Z,15
2022-09-20T11:14:05.751Z,15
2022-09-20T11:15:12.856Z,15
2022-09-20T11:16:20.050Z,15
2022-09-20T11:17:27.046Z,15
2022-09-20T11:19:40.735Z,15
2022-09-20T11:20:47.834Z,15
2022-09-20T11:21:54.923Z,15
2022-09-20T11:23:02.622Z,15.1
2022-09-20T11:24:09.167Z,15.1
2022-09-20T11:25:20.388Z,15.1
2022-09-20T11:26:22.927Z,15.1
2022-09-20T11:28:37.128Z,15.2
2022-09-20T11:29:44.192Z,15.2
2022-09-20T11:30:50.936Z,15.2
2022-09-20T11:31:57.957Z,15.2
2022-09-20T11:33:04.952Z,15.3
2022-09-20T11:34:12.141Z,15.3
2022-09-20T11:35:19.186Z,15.3
2022-09-20T11:36:25.727Z,15.3
2022-09-20T11:37:32.931Z,15.3
2022-09-20T11:38:40.015Z,15.4
2022-09-20T11:39:47.155Z,15.4
2022-09-20T11:40:54.150Z,15.4
2022-09-20T11:42:00.777Z,15.4
2022-09-20T11:43:07.924Z,15.4
2022-09-20T11:44:15.017Z,15.4
2022-09-20T11:45:25.187Z,15.4
2022-09-20T11:47:54.096Z,15.4
2022-09-20T11:48:42.885Z,15.4
2022-09-20T11:49:49.993Z,15.4
2022-09-20T11:50:57.105Z,15.4
2022-09-20T11:53:10.856Z,15.4
2022-09-20T11:54:17.883Z,15.4
2022-09-20T11:55:24.962Z,15.4
2022-09-20T11:56:32.116Z,15.4
2022-09-20T11:57:38.778Z,15.4
2022-09-20T11:58:45.853Z,15.4
2022-09-20T11:59:52.866Z,15.4
2022-09-20T12:01:01.518Z,15.4
2022-09-20T12:02:07.229Z,15.4
2022-09-20T12:03:13.788Z,15.4
2022-09-20T12:04:32.543Z,15.4
2022-09-20T12:05:27.975Z,15.4
2022-09-20T12:06:35.056Z,15.4
2022-09-20T12:09:55.775Z,15.4
2022-09-20T12:11:02.934Z,15.3
2022-09-20T12:12:10.159Z,15.3
2022-09-20T12:13:17.122Z,15.3
2022-09-20T12:15:30.858Z,15.3
2022-09-20T12:16:38.008Z,15.3
2022-09-20T12:17:45.084Z,15.3
2022-09-20T12:18:52.210Z,15.3
2022-09-20T12:19:58.715Z,15.3
2022-09-20T12:21:05.839Z,15.3
2022-09-20T12:22:12.887Z,15.3
2022-09-20T12:23:20.080Z,15.3
2022-09-20T12:24:27.133Z,15.3
2022-09-20T12:25:33.737Z,15.3
2022-09-20T12:26:42.408Z,15.3
2022-09-20T12:27:47.976Z,15.3
2022-09-20T12:28:55.034Z,15.4
2022-09-20T12:30:02.188Z,15.4
2022-09-20T12:31:08.771Z,15.4
2022-09-20T12:32:15.955Z,15.4
2022-09-20T12:33:22.903Z,15.4
2022-09-20T12:34:30.156Z,15.4
2022-09-20T12:35:37.204Z,15.4
2022-09-20T12:36:43.756Z,15.4
2022-09-20T12:37:50.965Z,15.4
2022-09-20T12:38:57.957Z,15.4
2022-09-20T12:40:05.189Z,15.4
2022-09-20T12:41:12.180Z,15.4
2022-09-20T12:42:18.783Z,15.4
2022-09-20T12:43:25.900Z,15.4
2022-09-20T12:44:33.025Z,15.4
2022-09-20T12:45:40.164Z,15.4
2022-09-20T12:46:47.130Z,15.4
2022-09-20T12:47:53.721Z,15.4
2022-09-20T12:49:02.006Z,15.4
2022-09-20T12:51:15.099Z,15.4
2022-09-20T12:52:22.217Z,15.4
2022-09-20T12:53:28.790Z,15.4
2022-09-20T12:54:35.976Z,15.4
2022-09-20T12:55:42.942Z,15.4
2022-09-20T12:56:50.063Z,15.4
2022-09-20T12:57:57.201Z,15.4
2022-09-20T12:59:03.772Z,15.4
2022-09-20T13:00:10.986Z,15.4
2022-09-20T13:01:18.061Z,15.4
2022-09-20T13:02:25.070Z,15.4
2022-09-20T13:03:32.224Z,15.4
2022-09-20T13:04:38.812Z,15.4
2022-09-20T13:05:45.977Z,15.4
2022-09-20T13:06:52.982Z,15.3
2022-09-20T13:08:00.091Z,15.3
2022-09-20T13:09:06.714Z,15.3
2022-09-20T13:10:13.753Z,15.3
2022-09-20T13:12:28.010Z,15.3
2022-09-20T13:13:35.107Z,15.3
2022-09-20T13:14:41.700Z,15.3
2022-09-20T13:15:48.787Z,15.3
2022-09-20T13:16:56.453Z,15.3
2022-09-20T13:18:02.972Z,15.3
2022-09-20T13:19:10.112Z,15.3
2022-09-20T13:21:23.763Z,15.3
2022-09-20T13:22:30.907Z,15.3
2022-09-20T13:23:38.052Z,15.3
2022-09-20T13:24:45.113Z,15.3
2022-09-20T13:25:51.680Z,15.3
2022-09-20T13:26:58.802Z,15.3
2022-09-20T13:28:05.924Z,15.3
2022-09-20T13:29:12.984Z,15.3
2022-09-20T13:30:20.690Z,15.3
2022-09-20T13:32:33.821Z,15.3
2022-09-20T13:33:40.968Z,15.3
2022-09-20T13:34:48.071Z,15.2
2022-09-20T13:35:55.132Z,15.2
2022-09-20T13:37:01.762Z,15.3
2022-09-20T13:38:08.843Z,15.3
2022-09-20T13:39:16.045Z,15.3
2022-09-20T13:40:23.066Z,15.3
2022-09-20T13:41:30.162Z,15.3
2022-09-20T13:42:36.849Z,15.3
2022-09-20T13:43:43.844Z,15.3
2022-09-20T13:45:58.158Z,15.3
2022-09-20T13:47:04.597Z,15.3
2022-09-20T13:48:11.728Z,15.3
2022-09-20T13:49:18.839Z,15.3
2022-09-20T13:50:25.982Z,15.3
2022-09-20T13:51:33.081Z,15.3
2022-09-20T13:52:40.150Z,15.4
2022-09-20T13:53:46.814Z,15.3
2022-09-20T13:54:53.820Z,15.4
2022-09-20T13:56:00.945Z,15.4
2022-09-20T13:57:08.071Z,15.4
2022-09-20T13:58:15.174Z,15.4
2022-09-20T13:59:21.839Z,15.4
2022-09-20T14:00:28.905Z,15.4
2022-09-20T14:01:35.995Z,15.4
2022-09-20T14:02:43.083Z,15.4
2022-09-20T14:03:49.687Z,15.4
2022-09-20T14:04:56.860Z,15.4
2022-09-20T14:06:03.842Z,15.4
2022-09-20T14:07:11.013Z,15.4
2022-09-20T14:08:18.091Z,15.4
2022-09-20T14:09:24.620Z,15.4
2022-09-20T14:10:31.846Z,15.3
2022-09-20T14:11:38.926Z,15.3
2022-09-20T14:13:53.138Z,15.3
2022-09-20T14:16:06.861Z,15.3
2022-09-20T14:17:13.948Z,15.3
2022-09-20T14:18:21.052Z,15.3
2022-09-20T14:19:28.155Z,15.3
2022-09-20T14:20:34.702Z,15.3
2022-09-20T14:21:41.866Z,15.3
2022-09-20T14:22:48.920Z,15.3
2022-09-20T14:23:55.994Z,15.3
2022-09-20T14:25:03.151Z,15.3
2022-09-20T14:26:09.737Z,15.3
2022-09-20T14:27:16.814Z,15.3
2022-09-20T14:28:28.047Z,15.3
2022-09-20T14:29:31.049Z,15.3
2022-09-20T14:30:38.105Z,15.3
2022-09-20T14:31:44.782Z,15.3
2022-09-20T14:32:51.832Z,15.3
2022-09-20T14:33:59.439Z,15.3
2022-09-20T14:35:05.996Z,15.3
2022-09-20T14:36:13.172Z,15.3
2022-09-20T14:37:19.695Z,15.3
2022-09-20T14:38:27.275Z,15.3
2022-09-20T14:39:33.961Z,15.3
2022-09-20T14:41:48.225Z,15.3
2022-09-20T14:42:54.751Z,15.2
2022-09-20T14:44:01.935Z,15.3
2022-09-20T14:45:08.913Z,15.3
2022-09-20T14:46:16.070Z,15.3
2022-09-20T14:47:22.628Z,15.3
2022-09-20T14:49:36.916Z,15.3
2022-09-20T14:50:43.969Z,15.2
2022-09-20T14:51:51.102Z,15.2
2022-09-20T14:52:57.722Z,15.3
2022-09-20T14:55:11.885Z,15.2
2022-09-20T14:56:18.972Z,15.3
2022-09-20T14:57:26.115Z,15.2
2022-09-20T14:58:32.658Z,15.2
2022-09-20T14:59:39.772Z,15.3
2022-09-20T15:00:46.968Z,15.2
2022-09-20T15:01:53.972Z,15.3
2022-09-20T15:03:01.784Z,15.3
2022-09-20T15:04:07.747Z,15.3
2022-09-20T15:05:14.696Z,15.2
2022-09-20T15:06:21.844Z,15.2
2022-09-20T15:07:29.017Z,15.2
2022-09-20T15:09:42.696Z,15.2
2022-09-20T15:10:49.815Z,15.2
2022-09-20T15:11:56.914Z,15.2
2022-09-20T15:13:04.920Z,15.2
2022-09-20T15:14:11.123Z,15.2
2022-09-20T15:15:17.715Z,15.2
2022-09-20T15:16:24.842Z,15.2
2022-09-20T15:17:31.848Z,15.2
2022-09-20T15:19:46.157Z,15.2
2022-09-20T15:20:52.691Z,15.2
2022-09-20T15:21:59.752Z,15.1
2022-09-20T15:23:06.987Z,15.1
2022-09-20T15:24:13.931Z,15.1
2022-09-20T15:25:21.170Z,15.1
2022-09-20T15:26:27.697Z,15.1
2022-09-20T15:27:34.793Z,15.1
2022-09-20T15:28:41.936Z,15
2022-09-20T15:29:49.040Z,15
2022-09-20T15:30:56.936Z,15.1
2022-09-20T15:32:02.703Z,15.1
2022-09-20T15:33:09.765Z,15
2022-09-20T15:34:16.894Z,15
2022-09-20T15:36:31.168Z,15
2022-09-20T15:37:38.803Z,15.1
2022-09-20T15:38:44.737Z,15.1
2022-09-20T15:39:51.956Z,15.1
2022-09-20T15:40:58.985Z,15.1
2022-09-20T15:42:06.236Z,15.1
2022-09-20T15:43:13.892Z,15.1
2022-09-20T15:44:19.810Z,15.1
2022-09-20T15:45:26.989Z,15.1
2022-09-20T15:46:34.024Z,15.1
2022-09-20T15:47:41.145Z,15.1
2022-09-20T15:48:47.874Z,15.1
2022-09-20T15:49:54.796Z,15
2022-09-20T15:51:02.031Z,15
2022-09-20T15:52:08.993Z,15
2022-09-20T15:53:15.589Z,15
2022-09-20T15:54:22.658Z,15
2022-09-20T15:55:29.846Z,15
2022-09-20T15:56:36.952Z,15
2022-09-20T15:57:43.973Z,15
2022-09-20T15:58:50.636Z,15
2022-09-20T15:59:57.860Z,15
2022-09-20T16:01:04.897Z,15
2022-09-20T16:02:12.039Z,15
2022-09-20T16:03:19.105Z,15
2022-09-20T16:04:25.647Z,15
2022-09-20T16:05:32.730Z,15
2022-09-20T16:06:39.928Z,14.9
2022-09-20T16:07:46.915Z,15
2022-09-20T16:08:54.069Z,14.9
2022-09-20T16:10:00.635Z,14.9
2022-09-20T16:11:07.817Z,14.9